sensor_id;sensor_type;location;lat;lon;timestamp;P1;durP1;ratioP1;P2;durP2;ratioP2
9413;SDS011;4746;35.664;139.738;2024-01-30T00:01:01;8.13;;;7.40;;
9413;SDS011;4746;35.664;139.738;2024-01-30T00:03:29;7.77;;;7.07;;
9413;SDS011;4746;35.664;139.738;2024-01-30T00:05:56;7.57;;;6.87;;
9413;SDS011;4746;35.664;139.738;2024-01-30T00:08:24;8.33;;;7.67;;
9413;SDS011;4746;35.664;139.738;2024-01-30T00:10:51;7.87;;;7.17;;
9413;SDS011;4746;35.664;139.738;2024-01-30T00:13:19;7.07;;;6.40;;
9413;SDS011;4746;35.664;139.738;2024-01-30T00:15:47;7.67;;;6.90;;
9413;SDS011;4746;35.664;139.738;2024-01-30T00:18:14;7.57;;;6.60;;
9413;SDS011;4746;35.664;139.738;2024-01-30T00:20:42;6.93;;;6.33;;
9413;SDS011;4746;35.664;139.738;2024-01-30T00:23:09;7.70;;;7.00;;
9413;SDS011;4746;35.664;139.738;2024-01-30T00:25:37;7.13;;;6.43;;
9413;SDS011;4746;35.664;139.738;2024-01-30T00:28:04;7.77;;;6.83;;
9413;SDS011;4746;35.664;139.738;2024-01-30T00:30:32;8.17;;;6.70;;
9413;SDS011;4746;35.664;139.738;2024-01-30T00:32:59;6.57;;;6.00;;
9413;SDS011;4746;35.664;139.738;2024-01-30T00:35:29;7.60;;;7.00;;
9413;SDS011;4746;35.664;139.738;2024-01-30T00:37:57;7.20;;;6.50;;
9413;SDS011;4746;35.664;139.738;2024-01-30T00:40:25;6.73;;;6.10;;
9413;SDS011;4746;35.664;139.738;2024-01-30T00:42:52;9.40;;;7.20;;
9413;SDS011;4746;35.664;139.738;2024-01-30T00:45:20;7.87;;;7.07;;
9413;SDS011;4746;35.664;139.738;2024-01-30T00:47:47;6.90;;;6.30;;
9413;SDS011;4746;35.664;139.738;2024-01-30T00:50:15;7.20;;;6.60;;
9413;SDS011;4746;35.664;139.738;2024-01-30T00:52:43;8.53;;;7.83;;
9413;SDS011;4746;35.664;139.738;2024-01-30T00:55:10;8.10;;;7.00;;
9413;SDS011;4746;35.664;139.738;2024-01-30T00:57:39;6.93;;;6.33;;
9413;SDS011;4746;35.664;139.738;2024-01-30T01:00:07;8.33;;;7.53;;
9413;SDS011;4746;35.664;139.738;2024-01-30T01:02:35;8.13;;;7.03;;
9413;SDS011;4746;35.664;139.738;2024-01-30T01:05:04;7.00;;;6.27;;
9413;SDS011;4746;35.664;139.738;2024-01-30T01:07:32;7.90;;;7.30;;
9413;SDS011;4746;35.664;139.738;2024-01-30T01:10:00;8.03;;;7.23;;
9413;SDS011;4746;35.664;139.738;2024-01-30T01:12:29;7.67;;;7.07;;
9413;SDS011;4746;35.664;139.738;2024-01-30T01:14:56;8.27;;;7.47;;
9413;SDS011;4746;35.664;139.738;2024-01-30T01:17:24;7.33;;;6.73;;
9413;SDS011;4746;35.664;139.738;2024-01-30T01:19:52;7.40;;;6.80;;
9413;SDS011;4746;35.664;139.738;2024-01-30T01:22:20;6.50;;;5.90;;
9413;SDS011;4746;35.664;139.738;2024-01-30T01:24:48;8.20;;;6.73;;
9413;SDS011;4746;35.664;139.738;2024-01-30T01:27:15;6.23;;;5.63;;
9413;SDS011;4746;35.664;139.738;2024-01-30T01:29:43;7.50;;;6.37;;
9413;SDS011;4746;35.664;139.738;2024-01-30T01:32:11;7.43;;;6.73;;
9413;SDS011;4746;35.664;139.738;2024-01-30T01:34:38;7.40;;;6.77;;
9413;SDS011;4746;35.664;139.738;2024-01-30T01:37:06;7.00;;;6.50;;
9413;SDS011;4746;35.664;139.738;2024-01-30T01:39:33;7.00;;;6.40;;
9413;SDS011;4746;35.664;139.738;2024-01-30T01:42:01;6.70;;;6.20;;
9413;SDS011;4746;35.664;139.738;2024-01-30T01:44:28;8.63;;;7.70;;
9413;SDS011;4746;35.664;139.738;2024-01-30T01:46:56;9.13;;;8.23;;
9413;SDS011;4746;35.664;139.738;2024-01-30T01:49:24;7.33;;;6.67;;
9413;SDS011;4746;35.664;139.738;2024-01-30T01:51:55;6.70;;;6.10;;
9413;SDS011;4746;35.664;139.738;2024-01-30T01:54:24;6.50;;;5.93;;
9413;SDS011;4746;35.664;139.738;2024-01-30T01:56:54;8.50;;;6.80;;
9413;SDS011;4746;35.664;139.738;2024-01-30T01:59:22;7.00;;;6.40;;
9413;SDS011;4746;35.664;139.738;2024-01-30T02:01:51;7.40;;;6.20;;
9413;SDS011;4746;35.664;139.738;2024-01-30T02:04:21;6.20;;;5.70;;
9413;SDS011;4746;35.664;139.738;2024-01-30T02:06:49;6.77;;;6.20;;
9413;SDS011;4746;35.664;139.738;2024-01-30T02:09:17;6.40;;;5.80;;
9413;SDS011;4746;35.664;139.738;2024-01-30T02:11:45;6.37;;;5.73;;
9413;SDS011;4746;35.664;139.738;2024-01-30T02:14:12;8.33;;;7.43;;
9413;SDS011;4746;35.664;139.738;2024-01-30T02:16:40;7.53;;;6.83;;
9413;SDS011;4746;35.664;139.738;2024-01-30T02:19:07;6.50;;;6.00;;
9413;SDS011;4746;35.664;139.738;2024-01-30T02:21:35;6.73;;;6.13;;
9413;SDS011;4746;35.664;139.738;2024-01-30T02:24:02;7.03;;;6.03;;
9413;SDS011;4746;35.664;139.738;2024-01-30T02:26:31;7.27;;;6.70;;
9413;SDS011;4746;35.664;139.738;2024-01-30T02:28:58;6.30;;;5.70;;
9413;SDS011;4746;35.664;139.738;2024-01-30T02:31:26;7.27;;;6.57;;
9413;SDS011;4746;35.664;139.738;2024-01-30T02:33:53;6.13;;;5.63;;
9413;SDS011;4746;35.664;139.738;2024-01-30T02:36:21;6.80;;;6.13;;
9413;SDS011;4746;35.664;139.738;2024-01-30T02:38:48;5.60;;;5.10;;
9413;SDS011;4746;35.664;139.738;2024-01-30T02:41:16;6.60;;;6.00;;
9413;SDS011;4746;35.664;139.738;2024-01-30T02:43:43;6.20;;;5.70;;
9413;SDS011;4746;35.664;139.738;2024-01-30T02:46:12;6.90;;;6.30;;
9413;SDS011;4746;35.664;139.738;2024-01-30T02:48:40;6.30;;;5.70;;
9413;SDS011;4746;35.664;139.738;2024-01-30T02:51:07;5.73;;;5.23;;
9413;SDS011;4746;35.664;139.738;2024-01-30T02:53:35;6.17;;;5.67;;
9413;SDS011;4746;35.664;139.738;2024-01-30T02:56:02;6.27;;;5.77;;
9413;SDS011;4746;35.664;139.738;2024-01-30T02:58:31;6.97;;;6.30;;
9413;SDS011;4746;35.664;139.738;2024-01-30T03:01:01;7.00;;;6.40;;
9413;SDS011;4746;35.664;139.738;2024-01-30T03:03:29;7.83;;;5.80;;
9413;SDS011;4746;35.664;139.738;2024-01-30T03:05:56;6.80;;;6.30;;
9413;SDS011;4746;35.664;139.738;2024-01-30T03:08:24;8.20;;;7.37;;
9413;SDS011;4746;35.664;139.738;2024-01-30T03:10:51;10.90;;;9.80;;
9413;SDS011;4746;35.664;139.738;2024-01-30T03:13:19;10.93;;;8.50;;
9413;SDS011;4746;35.664;139.738;2024-01-30T03:15:50;10.33;;;9.50;;
9413;SDS011;4746;35.664;139.738;2024-01-30T03:18:17;8.73;;;7.93;;
9413;SDS011;4746;35.664;139.738;2024-01-30T03:20:45;9.93;;;8.93;;
9413;SDS011;4746;35.664;139.738;2024-01-30T03:23:13;8.23;;;7.27;;
9413;SDS011;4746;35.664;139.738;2024-01-30T03:25:40;7.70;;;7.00;;
9413;SDS011;4746;35.664;139.738;2024-01-30T03:28:08;8.07;;;7.37;;
9413;SDS011;4746;35.664;139.738;2024-01-30T03:30:36;6.60;;;6.00;;
9413;SDS011;4746;35.664;139.738;2024-01-30T03:33:06;8.53;;;6.07;;
9413;SDS011;4746;35.664;139.738;2024-01-30T03:35:35;6.90;;;6.30;;
9413;SDS011;4746;35.664;139.738;2024-01-30T03:38:03;6.97;;;6.37;;
9413;SDS011;4746;35.664;139.738;2024-01-30T03:40:30;8.37;;;7.60;;
9413;SDS011;4746;35.664;139.738;2024-01-30T03:42:58;7.53;;;6.40;;
9413;SDS011;4746;35.664;139.738;2024-01-30T03:45:25;8.60;;;7.80;;
9413;SDS011;4746;35.664;139.738;2024-01-30T03:47:53;7.60;;;6.67;;
9413;SDS011;4746;35.664;139.738;2024-01-30T03:50:20;7.90;;;6.27;;
9413;SDS011;4746;35.664;139.738;2024-01-30T03:52:48;7.27;;;6.50;;
9413;SDS011;4746;35.664;139.738;2024-01-30T03:55:15;6.67;;;5.97;;
9413;SDS011;4746;35.664;139.738;2024-01-30T03:57:43;5.70;;;5.23;;
9413;SDS011;4746;35.664;139.738;2024-01-30T04:00:10;5.80;;;5.20;;
9413;SDS011;4746;35.664;139.738;2024-01-30T04:02:40;6.17;;;5.57;;
9413;SDS011;4746;35.664;139.738;2024-01-30T04:05:07;6.37;;;5.77;;
9413;SDS011;4746;35.664;139.738;2024-01-30T04:07:35;6.83;;;6.33;;
9413;SDS011;4746;35.664;139.738;2024-01-30T04:10:02;6.50;;;5.90;;
9413;SDS011;4746;35.664;139.738;2024-01-30T04:12:33;5.57;;;5.07;;
9413;SDS011;4746;35.664;139.738;2024-01-30T04:15:01;6.10;;;5.50;;
9413;SDS011;4746;35.664;139.738;2024-01-30T04:17:29;6.07;;;5.57;;
9413;SDS011;4746;35.664;139.738;2024-01-30T04:19:57;5.90;;;5.37;;
9413;SDS011;4746;35.664;139.738;2024-01-30T04:22:24;7.27;;;6.60;;
9413;SDS011;4746;35.664;139.738;2024-01-30T04:24:51;6.87;;;6.27;;
9413;SDS011;4746;35.664;139.738;2024-01-30T04:27:19;7.90;;;7.20;;
9413;SDS011;4746;35.664;139.738;2024-01-30T04:29:46;7.32;;;6.55;;
9413;SDS011;4746;35.664;139.738;2024-01-30T04:32:14;7.68;;;6.97;;
9413;SDS011;4746;35.664;139.738;2024-01-30T04:34:42;8.32;;;7.72;;
9413;SDS011;4746;35.664;139.738;2024-01-30T04:37:10;8.13;;;7.32;;
9413;SDS011;4746;35.664;139.738;2024-01-30T04:39:37;7.93;;;7.22;;
9413;SDS011;4746;35.664;139.738;2024-01-30T04:42:06;7.97;;;7.35;;
9413;SDS011;4746;35.664;139.738;2024-01-30T04:44:33;7.32;;;6.72;;
9413;SDS011;4746;35.664;139.738;2024-01-30T04:47:01;7.97;;;7.22;;
9413;SDS011;4746;35.664;139.738;2024-01-30T04:49:30;7.55;;;6.95;;
9413;SDS011;4746;35.664;139.738;2024-01-30T04:51:58;8.65;;;7.85;;
9413;SDS011;4746;35.664;139.738;2024-01-30T04:54:26;9.75;;;7.68;;
9413;SDS011;4746;35.664;139.738;2024-01-30T04:56:53;8.15;;;7.45;;
9413;SDS011;4746;35.664;139.738;2024-01-30T04:59:21;9.57;;;8.20;;
9413;SDS011;4746;35.664;139.738;2024-01-30T05:01:48;7.90;;;7.03;;
9413;SDS011;4746;35.664;139.738;2024-01-30T05:04:16;8.13;;;7.43;;
9413;SDS011;4746;35.664;139.738;2024-01-30T05:06:44;8.05;;;7.28;;
9413;SDS011;4746;35.664;139.738;2024-01-30T05:09:12;8.00;;;7.20;;
9413;SDS011;4746;35.664;139.738;2024-01-30T05:11:40;7.22;;;6.55;;
9413;SDS011;4746;35.664;139.738;2024-01-30T05:14:08;6.78;;;6.22;;
9413;SDS011;4746;35.664;139.738;2024-01-30T05:16:37;6.75;;;6.10;;
9413;SDS011;4746;35.664;139.738;2024-01-30T05:19:04;7.03;;;6.32;;
9413;SDS011;4746;35.664;139.738;2024-01-30T05:21:32;7.60;;;6.68;;
9413;SDS011;4746;35.664;139.738;2024-01-30T05:24:00;6.40;;;5.90;;
9413;SDS011;4746;35.664;139.738;2024-01-30T05:26:27;6.03;;;5.38;;
9413;SDS011;4746;35.664;139.738;2024-01-30T05:28:55;5.60;;;5.20;;
9413;SDS011;4746;35.664;139.738;2024-01-30T05:31:24;6.35;;;5.75;;
9413;SDS011;4746;35.664;139.738;2024-01-30T05:33:52;5.72;;;5.22;;
9413;SDS011;4746;35.664;139.738;2024-01-30T05:36:20;6.35;;;5.75;;
9413;SDS011;4746;35.664;139.738;2024-01-30T05:38:48;6.85;;;6.28;;
9413;SDS011;4746;35.664;139.738;2024-01-30T05:41:15;5.90;;;5.47;;
9413;SDS011;4746;35.664;139.738;2024-01-30T05:43:43;7.63;;;6.72;;
9413;SDS011;4746;35.664;139.738;2024-01-30T05:46:11;7.13;;;6.60;;
9413;SDS011;4746;35.664;139.738;2024-01-30T05:48:38;6.93;;;6.40;;
9413;SDS011;4746;35.664;139.738;2024-01-30T05:51:06;7.45;;;6.78;;
9413;SDS011;4746;35.664;139.738;2024-01-30T05:53:34;6.75;;;6.13;;
9413;SDS011;4746;35.664;139.738;2024-01-30T05:56:02;6.97;;;6.38;;
9413;SDS011;4746;35.664;139.738;2024-01-30T05:58:30;7.95;;;7.13;;
9413;SDS011;4746;35.664;139.738;2024-01-30T06:00:58;7.03;;;6.43;;
9413;SDS011;4746;35.664;139.738;2024-01-30T06:03:25;6.93;;;6.43;;
9413;SDS011;4746;35.664;139.738;2024-01-30T06:05:53;7.03;;;6.30;;
9413;SDS011;4746;35.664;139.738;2024-01-30T06:08:20;7.07;;;6.47;;
9413;SDS011;4746;35.664;139.738;2024-01-30T06:10:48;6.55;;;6.00;;
9413;SDS011;4746;35.664;139.738;2024-01-30T06:13:15;7.40;;;6.70;;
9413;SDS011;4746;35.664;139.738;2024-01-30T06:15:43;7.07;;;6.47;;
9413;SDS011;4746;35.664;139.738;2024-01-30T06:18:10;7.13;;;6.53;;
9413;SDS011;4746;35.664;139.738;2024-01-30T06:20:38;7.20;;;6.63;;
9413;SDS011;4746;35.664;139.738;2024-01-30T06:23:05;8.32;;;7.55;;
9413;SDS011;4746;35.664;139.738;2024-01-30T06:25:33;9.35;;;8.52;;
9413;SDS011;4746;35.664;139.738;2024-01-30T06:28:00;10.02;;;8.52;;
9413;SDS011;4746;35.664;139.738;2024-01-30T06:30:28;8.85;;;7.97;;
9413;SDS011;4746;35.664;139.738;2024-01-30T06:32:56;7.88;;;7.07;;
9413;SDS011;4746;35.664;139.738;2024-01-30T06:35:23;8.98;;;8.20;;
9413;SDS011;4746;35.664;139.738;2024-01-30T06:37:51;8.55;;;7.57;;
9413;SDS011;4746;35.664;139.738;2024-01-30T06:40:18;8.18;;;7.03;;
9413;SDS011;4746;35.664;139.738;2024-01-30T06:42:46;8.75;;;6.90;;
9413;SDS011;4746;35.664;139.738;2024-01-30T06:45:13;7.22;;;6.70;;
9413;SDS011;4746;35.664;139.738;2024-01-30T06:47:41;8.57;;;7.88;;
9413;SDS011;4746;35.664;139.738;2024-01-30T06:50:08;8.40;;;6.93;;
9413;SDS011;4746;35.664;139.738;2024-01-30T06:52:36;8.45;;;7.85;;
9413;SDS011;4746;35.664;139.738;2024-01-30T06:55:03;7.82;;;7.22;;
9413;SDS011;4746;35.664;139.738;2024-01-30T06:57:31;9.00;;;8.20;;
9413;SDS011;4746;35.664;139.738;2024-01-30T06:59:59;7.38;;;6.78;;
9413;SDS011;4746;35.664;139.738;2024-01-30T07:02:27;7.60;;;7.10;;
9413;SDS011;4746;35.664;139.738;2024-01-30T07:04:54;8.60;;;7.57;;
9413;SDS011;4746;35.664;139.738;2024-01-30T07:07:22;8.40;;;7.15;;
9413;SDS011;4746;35.664;139.738;2024-01-30T07:09:49;11.02;;;7.47;;
9413;SDS011;4746;35.664;139.738;2024-01-30T07:12:25;8.02;;;6.85;;
9413;SDS011;4746;35.664;139.738;2024-01-30T07:14:52;8.32;;;7.53;;
9413;SDS011;4746;35.664;139.738;2024-01-30T07:17:21;8.05;;;7.35;;
9413;SDS011;4746;35.664;139.738;2024-01-30T07:19:49;9.77;;;8.10;;
9413;SDS011;4746;35.664;139.738;2024-01-30T07:22:16;9.98;;;7.50;;
9413;SDS011;4746;35.664;139.738;2024-01-30T07:24:44;8.32;;;7.47;;
9413;SDS011;4746;35.664;139.738;2024-01-30T07:27:13;7.97;;;7.05;;
9413;SDS011;4746;35.664;139.738;2024-01-30T07:29:43;8.10;;;7.45;;
9413;SDS011;4746;35.664;139.738;2024-01-30T07:32:10;8.23;;;7.53;;
9413;SDS011;4746;35.664;139.738;2024-01-30T07:34:38;9.00;;;8.07;;
9413;SDS011;4746;35.664;139.738;2024-01-30T07:37:05;9.68;;;8.70;;
9413;SDS011;4746;35.664;139.738;2024-01-30T07:39:34;8.30;;;7.53;;
9413;SDS011;4746;35.664;139.738;2024-01-30T07:42:02;8.60;;;7.90;;
9413;SDS011;4746;35.664;139.738;2024-01-30T07:44:30;11.35;;;7.80;;
9413;SDS011;4746;35.664;139.738;2024-01-30T07:46:57;8.73;;;7.93;;
9413;SDS011;4746;35.664;139.738;2024-01-30T07:49:25;9.20;;;7.93;;
9413;SDS011;4746;35.664;139.738;2024-01-30T07:51:53;7.70;;;7.00;;
9413;SDS011;4746;35.664;139.738;2024-01-30T07:54:20;9.80;;;8.83;;
9413;SDS011;4746;35.664;139.738;2024-01-30T07:56:48;8.83;;;8.03;;
9413;SDS011;4746;35.664;139.738;2024-01-30T07:59:16;9.00;;;8.10;;
9413;SDS011;4746;35.664;139.738;2024-01-30T08:01:47;9.23;;;7.47;;
9413;SDS011;4746;35.664;139.738;2024-01-30T08:04:14;9.53;;;8.57;;
9413;SDS011;4746;35.664;139.738;2024-01-30T08:06:43;9.00;;;8.20;;
9413;SDS011;4746;35.664;139.738;2024-01-30T08:09:10;9.13;;;8.23;;
9413;SDS011;4746;35.664;139.738;2024-01-30T08:11:38;8.40;;;7.70;;
9413;SDS011;4746;35.664;139.738;2024-01-30T08:14:06;9.47;;;8.43;;
9413;SDS011;4746;35.664;139.738;2024-01-30T08:16:33;8.47;;;7.73;;
9413;SDS011;4746;35.664;139.738;2024-01-30T08:19:01;8.30;;;7.60;;
9413;SDS011;4746;35.664;139.738;2024-01-30T08:21:29;8.67;;;7.83;;
9413;SDS011;4746;35.664;139.738;2024-01-30T08:24:05;9.23;;;8.33;;
9413;SDS011;4746;35.664;139.738;2024-01-30T08:26:33;8.67;;;7.83;;
9413;SDS011;4746;35.664;139.738;2024-01-30T08:29:01;8.20;;;7.40;;
9413;SDS011;4746;35.664;139.738;2024-01-30T08:31:29;8.43;;;7.73;;
9413;SDS011;4746;35.664;139.738;2024-01-30T08:33:57;8.13;;;7.30;;
9413;SDS011;4746;35.664;139.738;2024-01-30T08:36:24;8.13;;;7.43;;
9413;SDS011;4746;35.664;139.738;2024-01-30T08:38:52;9.17;;;8.00;;
9413;SDS011;4746;35.664;139.738;2024-01-30T08:41:20;8.30;;;7.60;;
9413;SDS011;4746;35.664;139.738;2024-01-30T08:43:47;8.67;;;7.87;;
9413;SDS011;4746;35.664;139.738;2024-01-30T08:46:18;8.47;;;7.83;;
9413;SDS011;4746;35.664;139.738;2024-01-30T08:48:46;8.83;;;8.03;;
9413;SDS011;4746;35.664;139.738;2024-01-30T08:51:13;8.73;;;7.80;;
9413;SDS011;4746;35.664;139.738;2024-01-30T08:53:41;8.73;;;7.83;;
9413;SDS011;4746;35.664;139.738;2024-01-30T08:56:08;8.97;;;8.17;;
9413;SDS011;4746;35.664;139.738;2024-01-30T08:58:36;10.03;;;8.87;;
9413;SDS011;4746;35.664;139.738;2024-01-30T09:01:03;9.07;;;8.27;;
9413;SDS011;4746;35.664;139.738;2024-01-30T09:03:31;12.07;;;9.33;;
9413;SDS011;4746;35.664;139.738;2024-01-30T09:05:59;9.43;;;8.67;;
9413;SDS011;4746;35.664;139.738;2024-01-30T09:08:26;10.17;;;9.17;;
9413;SDS011;4746;35.664;139.738;2024-01-30T09:10:54;9.90;;;8.93;;
9413;SDS011;4746;35.664;139.738;2024-01-30T09:13:24;10.20;;;9.17;;
9413;SDS011;4746;35.664;139.738;2024-01-30T09:15:51;10.13;;;9.07;;
9413;SDS011;4746;35.664;139.738;2024-01-30T09:18:20;11.47;;;10.23;;
9413;SDS011;4746;35.664;139.738;2024-01-30T09:20:48;11.03;;;9.83;;
9413;SDS011;4746;35.664;139.738;2024-01-30T09:23:15;8.60;;;7.83;;
9413;SDS011;4746;35.664;139.738;2024-01-30T09:25:44;10.23;;;9.27;;
9413;SDS011;4746;35.664;139.738;2024-01-30T09:28:12;10.13;;;9.10;;
9413;SDS011;4746;35.664;139.738;2024-01-30T09:30:39;10.10;;;9.20;;
9413;SDS011;4746;35.664;139.738;2024-01-30T09:33:07;10.57;;;9.47;;
9413;SDS011;4746;35.664;139.738;2024-01-30T09:35:34;9.17;;;8.27;;
9413;SDS011;4746;35.664;139.738;2024-01-30T09:38:05;9.40;;;8.60;;
9413;SDS011;4746;35.664;139.738;2024-01-30T09:40:32;10.27;;;8.73;;
9413;SDS011;4746;35.664;139.738;2024-01-30T09:43:00;8.27;;;7.47;;
9413;SDS011;4746;35.664;139.738;2024-01-30T09:45:29;8.07;;;7.40;;
9413;SDS011;4746;35.664;139.738;2024-01-30T09:48:01;8.00;;;7.33;;
9413;SDS011;4746;35.664;139.738;2024-01-30T09:50:29;8.57;;;7.67;;
9413;SDS011;4746;35.664;139.738;2024-01-30T09:53:01;7.47;;;6.83;;
9413;SDS011;4746;35.664;139.738;2024-01-30T09:55:31;11.70;;;9.40;;
9413;SDS011;4746;35.664;139.738;2024-01-30T09:58:01;10.93;;;9.90;;
9413;SDS011;4746;35.664;139.738;2024-01-30T10:00:28;8.67;;;7.87;;
9413;SDS011;4746;35.664;139.738;2024-01-30T10:02:57;8.53;;;7.10;;
9413;SDS011;4746;35.664;139.738;2024-01-30T10:05:31;8.57;;;7.77;;
9413;SDS011;4746;35.664;139.738;2024-01-30T10:08:05;13.17;;;10.50;;
9413;SDS011;4746;35.664;139.738;2024-01-30T10:10:34;9.57;;;8.67;;
9413;SDS011;4746;35.664;139.738;2024-01-30T10:13:02;8.60;;;7.70;;
9413;SDS011;4746;35.664;139.738;2024-01-30T10:15:29;7.20;;;6.50;;
9413;SDS011;4746;35.664;139.738;2024-01-30T10:17:57;9.33;;;6.07;;
9413;SDS011;4746;35.664;139.738;2024-01-30T10:20:24;6.70;;;6.00;;
9413;SDS011;4746;35.664;139.738;2024-01-30T10:22:52;8.00;;;7.20;;
9413;SDS011;4746;35.664;139.738;2024-01-30T10:25:21;7.60;;;6.70;;
9413;SDS011;4746;35.664;139.738;2024-01-30T10:27:55;8.20;;;7.40;;
9413;SDS011;4746;35.664;139.738;2024-01-30T10:30:23;9.43;;;8.37;;
9413;SDS011;4746;35.664;139.738;2024-01-30T10:32:51;9.53;;;8.43;;
9413;SDS011;4746;35.664;139.738;2024-01-30T10:35:19;9.43;;;8.53;;
9413;SDS011;4746;35.664;139.738;2024-01-30T10:37:49;8.97;;;7.93;;
9413;SDS011;4746;35.664;139.738;2024-01-30T10:40:17;11.53;;;8.37;;
9413;SDS011;4746;35.664;139.738;2024-01-30T10:42:55;9.33;;;8.37;;
9413;SDS011;4746;35.664;139.738;2024-01-30T10:45:26;11.17;;;9.27;;
9413;SDS011;4746;35.664;139.738;2024-01-30T10:47:56;11.07;;;9.00;;
9413;SDS011;4746;35.664;139.738;2024-01-30T10:50:27;10.00;;;9.03;;
9413;SDS011;4746;35.664;139.738;2024-01-30T10:52:58;10.00;;;8.93;;
9413;SDS011;4746;35.664;139.738;2024-01-30T10:55:27;10.53;;;9.00;;
9413;SDS011;4746;35.664;139.738;2024-01-30T10:57:56;9.83;;;8.93;;
9413;SDS011;4746;35.664;139.738;2024-01-30T11:00:24;10.20;;;9.30;;
9413;SDS011;4746;35.664;139.738;2024-01-30T11:02:53;10.10;;;9.10;;
9413;SDS011;4746;35.664;139.738;2024-01-30T11:05:25;10.97;;;9.90;;
9413;SDS011;4746;35.664;139.738;2024-01-30T11:07:54;9.67;;;8.63;;
9413;SDS011;4746;35.664;139.738;2024-01-30T11:10:24;10.93;;;9.37;;
9413;SDS011;4746;35.664;139.738;2024-01-30T11:12:52;10.40;;;9.23;;
9413;SDS011;4746;35.664;139.738;2024-01-30T11:15:19;11.17;;;10.07;;
9413;SDS011;4746;35.664;139.738;2024-01-30T11:22:59;12.43;;;10.97;;
9413;SDS011;4746;35.664;139.738;2024-01-30T11:25:32;13.07;;;10.70;;
9413;SDS011;4746;35.664;139.738;2024-01-30T11:28:01;12.20;;;11.03;;
9413;SDS011;4746;35.664;139.738;2024-01-30T11:30:30;12.57;;;11.23;;
9413;SDS011;4746;35.664;139.738;2024-01-30T11:32:59;12.30;;;10.93;;
9413;SDS011;4746;35.664;139.738;2024-01-30T11:35:38;12.03;;;10.83;;
9413;SDS011;4746;35.664;139.738;2024-01-30T11:38:08;12.20;;;11.00;;
9413;SDS011;4746;35.664;139.738;2024-01-30T11:40:39;13.13;;;11.00;;
9413;SDS011;4746;35.664;139.738;2024-01-30T11:43:07;12.27;;;11.00;;
9413;SDS011;4746;35.664;139.738;2024-01-30T11:45:36;13.33;;;10.90;;
9413;SDS011;4746;35.664;139.738;2024-01-30T11:48:04;13.13;;;11.70;;
9413;SDS011;4746;35.664;139.738;2024-01-30T11:50:35;11.80;;;10.67;;
9413;SDS011;4746;35.664;139.738;2024-01-30T11:53:09;11.17;;;10.07;;
9413;SDS011;4746;35.664;139.738;2024-01-30T11:55:38;11.23;;;9.50;;
9413;SDS011;4746;35.664;139.738;2024-01-30T11:58:05;10.63;;;9.50;;
9413;SDS011;4746;35.664;139.738;2024-01-30T12:00:33;10.23;;;9.13;;
9413;SDS011;4746;35.664;139.738;2024-01-30T12:03:01;14.03;;;8.60;;
9413;SDS011;4746;35.664;139.738;2024-01-30T12:05:31;11.40;;;8.97;;
9413;SDS011;4746;35.664;139.738;2024-01-30T12:07:59;9.27;;;8.37;;
9413;SDS011;4746;35.664;139.738;2024-01-30T12:10:27;10.03;;;8.03;;
9413;SDS011;4746;35.664;139.738;2024-01-30T12:12:55;10.80;;;8.50;;
9413;SDS011;4746;35.664;139.738;2024-01-30T12:15:23;12.73;;;8.77;;
9413;SDS011;4746;35.664;139.738;2024-01-30T12:17:52;9.27;;;8.30;;
9413;SDS011;4746;35.664;139.738;2024-01-30T12:20:36;11.07;;;7.07;;
9413;SDS011;4746;35.664;139.738;2024-01-30T12:23:05;7.43;;;6.63;;
9413;SDS011;4746;35.664;139.738;2024-01-30T12:25:33;7.53;;;5.53;;
9413;SDS011;4746;35.664;139.738;2024-01-30T12:28:00;5.70;;;5.07;;
9413;SDS011;4746;35.664;139.738;2024-01-30T12:30:31;6.40;;;5.80;;
9413;SDS011;4746;35.664;139.738;2024-01-30T12:33:01;5.40;;;4.87;;
9413;SDS011;4746;35.664;139.738;2024-01-30T12:35:31;8.00;;;5.70;;
9413;SDS011;4746;35.664;139.738;2024-01-30T12:37:58;6.17;;;5.57;;
9413;SDS011;4746;35.664;139.738;2024-01-30T12:40:26;5.77;;;5.27;;
9413;SDS011;4746;35.664;139.738;2024-01-30T12:42:54;5.97;;;5.37;;
9413;SDS011;4746;35.664;139.738;2024-01-30T12:45:22;5.87;;;5.33;;
9413;SDS011;4746;35.664;139.738;2024-01-30T12:47:49;7.40;;;5.07;;
9413;SDS011;4746;35.664;139.738;2024-01-30T12:50:17;5.70;;;5.13;;
9413;SDS011;4746;35.664;139.738;2024-01-30T12:52:44;4.97;;;4.57;;
9413;SDS011;4746;35.664;139.738;2024-01-30T12:55:13;5.13;;;4.73;;
9413;SDS011;4746;35.664;139.738;2024-01-30T12:57:40;5.43;;;4.93;;
9413;SDS011;4746;35.664;139.738;2024-01-30T13:00:08;5.73;;;4.87;;
9413;SDS011;4746;35.664;139.738;2024-01-30T13:02:37;5.93;;;4.30;;
9413;SDS011;4746;35.664;139.738;2024-01-30T13:05:05;4.30;;;3.90;;
9413;SDS011;4746;35.664;139.738;2024-01-30T13:07:33;4.77;;;3.87;;
9413;SDS011;4746;35.664;139.738;2024-01-30T13:10:01;8.17;;;4.17;;
9413;SDS011;4746;35.664;139.738;2024-01-30T13:12:29;4.67;;;3.60;;
9413;SDS011;4746;35.664;139.738;2024-01-30T13:15:01;4.20;;;3.80;;
9413;SDS011;4746;35.664;139.738;2024-01-30T13:17:30;5.20;;;3.60;;
9413;SDS011;4746;35.664;139.738;2024-01-30T13:19:58;4.20;;;3.90;;
9413;SDS011;4746;35.664;139.738;2024-01-30T13:22:26;3.77;;;3.37;;
9413;SDS011;4746;35.664;139.738;2024-01-30T13:24:53;3.93;;;3.43;;
9413;SDS011;4746;35.664;139.738;2024-01-30T13:27:21;4.07;;;3.33;;
9413;SDS011;4746;35.664;139.738;2024-01-30T13:29:49;4.17;;;3.30;;
9413;SDS011;4746;35.664;139.738;2024-01-30T13:32:16;5.23;;;4.10;;
9413;SDS011;4746;35.664;139.738;2024-01-30T13:34:45;5.23;;;3.87;;
9413;SDS011;4746;35.664;139.738;2024-01-30T13:37:12;5.87;;;4.10;;
9413;SDS011;4746;35.664;139.738;2024-01-30T13:39:40;3.80;;;3.40;;
9413;SDS011;4746;35.664;139.738;2024-01-30T13:42:07;4.17;;;3.80;;
9413;SDS011;4746;35.664;139.738;2024-01-30T13:44:35;4.37;;;3.83;;
9413;SDS011;4746;35.664;139.738;2024-01-30T13:47:03;5.30;;;3.47;;
9413;SDS011;4746;35.664;139.738;2024-01-30T13:49:31;4.10;;;3.70;;
9413;SDS011;4746;35.664;139.738;2024-01-30T13:51:58;9.30;;;4.70;;
9413;SDS011;4746;35.664;139.738;2024-01-30T13:54:26;6.80;;;3.93;;
9413;SDS011;4746;35.664;139.738;2024-01-30T13:56:53;5.33;;;4.63;;
9413;SDS011;4746;35.664;139.738;2024-01-30T13:59:21;4.87;;;4.53;;
9413;SDS011;4746;35.664;139.738;2024-01-30T14:01:51;4.87;;;4.43;;
9413;SDS011;4746;35.664;139.738;2024-01-30T14:04:18;5.83;;;4.23;;
9413;SDS011;4746;35.664;139.738;2024-01-30T14:06:46;4.20;;;3.80;;
9413;SDS011;4746;35.664;139.738;2024-01-30T14:09:14;4.43;;;3.73;;
9413;SDS011;4746;35.664;139.738;2024-01-30T14:11:41;7.03;;;4.20;;
9413;SDS011;4746;35.664;139.738;2024-01-30T14:14:11;4.87;;;4.43;;
9413;SDS011;4746;35.664;139.738;2024-01-30T14:16:41;4.13;;;3.73;;
9413;SDS011;4746;35.664;139.738;2024-01-30T14:19:08;4.93;;;4.13;;
9413;SDS011;4746;35.664;139.738;2024-01-30T14:21:36;7.43;;;4.50;;
9413;SDS011;4746;35.664;139.738;2024-01-30T14:24:05;5.03;;;4.53;;
9413;SDS011;4746;35.664;139.738;2024-01-30T14:26:37;6.47;;;5.67;;
9413;SDS011;4746;35.664;139.738;2024-01-30T14:29:04;7.37;;;5.30;;
9413;SDS011;4746;35.664;139.738;2024-01-30T14:31:32;6.73;;;6.00;;
9413;SDS011;4746;35.664;139.738;2024-01-30T14:34:00;6.20;;;5.13;;
9413;SDS011;4746;35.664;139.738;2024-01-30T14:36:28;6.30;;;4.97;;
9413;SDS011;4746;35.664;139.738;2024-01-30T14:38:55;5.63;;;5.03;;
9413;SDS011;4746;35.664;139.738;2024-01-30T14:41:23;6.47;;;5.33;;
9413;SDS011;4746;35.664;139.738;2024-01-30T14:43:51;6.87;;;4.53;;
9413;SDS011;4746;35.664;139.738;2024-01-30T14:46:20;5.30;;;4.90;;
9413;SDS011;4746;35.664;139.738;2024-01-30T14:48:48;7.13;;;5.40;;
9413;SDS011;4746;35.664;139.738;2024-01-30T14:51:17;6.50;;;5.90;;
9413;SDS011;4746;35.664;139.738;2024-01-30T14:53:44;8.50;;;6.80;;
9413;SDS011;4746;35.664;139.738;2024-01-30T14:56:11;7.83;;;7.03;;